RZT weather

Rancho Lanzarote Airport
Tepotzotlan, Mexico, Mexico

Public forecast

Using degrees Celsius for public forecast. Weather courtesy of forecast.io.

Closest aviation weather report (METAR) to Rancho Lanzarote Airport

Report is more than 6 hours old.

Closest report is Santa Lucia Air Force Base, 18.0 nm (33.4 km) ENE. Retrieved 2016/05/26 15:00 UTC (3 years ago):

MMSM 261500Z 00000KT 5SM SCT070 22/16 A3043 RMK 8/050 TRZ CI HZ

Closest aviation forecast (TAF) to Rancho Lanzarote Airport

Closest forecast is Licenciado Benito Juarez International Airport, 20.0 nm (37.0 km) SE. Retrieved 2019/10/20 18:00 UTC (5 hours ago):

TAF MMMX 201656Z 2018/2124 17006G16KT P6SM SCT020 SCT080 BKN200 TX26/2020Z TN15/2112Z BECMG 2021/2022 SCT020CB BKN080 BKN200 TEMPO 2022/2102 17010G20KT 6SM -TSRA FM210400 20006KT P6SM BKN020 BKN200 FM211700 08006KT 6SM HZ SCT020 SCT080 BKN200 FM212000 16010KT P6SM SCT020 BKN080 BKN200 TEMPO 2121/2124 6SM -TSRA SCT020CB BKN080 BKN200